createdAt,value
2018-02-15T00:02:26.049Z,15.00
2018-02-15T00:04:56.099Z,15.00
2018-02-15T00:07:25.234Z,15.00
2018-02-15T00:09:53.721Z,14.90
2018-02-15T00:12:21.592Z,14.90
2018-02-15T00:14:49.510Z,14.90
2018-02-15T00:17:24.171Z,14.90
2018-02-15T00:19:52.010Z,14.90
2018-02-15T00:22:19.865Z,14.80
2018-02-15T00:24:48.810Z,14.90
2018-02-15T00:27:17.393Z,14.80
2018-02-15T00:29:46.097Z,14.80
2018-02-15T00:32:14.882Z,14.80
2018-02-15T00:34:44.465Z,14.80
2018-02-15T00:37:12.292Z,14.80
2018-02-15T00:39:40.850Z,14.70
2018-02-15T00:42:09.264Z,14.70
2018-02-15T00:44:39.126Z,14.60
2018-02-15T00:47:10.097Z,14.60
2018-02-15T00:49:38.963Z,14.60
2018-02-15T00:52:07.548Z,14.60
2018-02-15T00:54:36.802Z,14.60
2018-02-15T00:57:04.664Z,14.50
2018-02-15T00:59:33.919Z,14.50
2018-02-15T01:02:02.518Z,14.50
2018-02-15T01:04:30.415Z,14.50
2018-02-15T01:06:58.387Z,14.50
2018-02-15T01:09:26.354Z,14.40
2018-02-15T01:11:54.181Z,14.40
2018-02-15T01:14:22.004Z,14.40
2018-02-15T01:16:49.806Z,14.40
2018-02-15T01:19:17.634Z,14.40
2018-02-15T01:21:45.535Z,14.40
2018-02-15T01:24:14.574Z,14.30
2018-02-15T01:26:44.634Z,14.30
2018-02-15T01:29:13.303Z,14.30
2018-02-15T01:31:41.318Z,14.30
2018-02-15T01:34:10.969Z,14.30
2018-02-15T01:36:39.422Z,14.30
2018-02-15T01:39:08.100Z,14.30
2018-02-15T01:41:36.031Z,14.30
2018-02-15T01:44:03.827Z,14.20
2018-02-15T01:46:31.671Z,14.20
2018-02-15T01:49:03.015Z,14.20
2018-02-15T01:51:32.126Z,14.20
2018-02-15T01:54:00.593Z,14.20
2018-02-15T01:56:28.394Z,14.20
2018-02-15T04:47:17.177Z,13.60
2018-02-15T04:49:46.495Z,13.60
2018-02-15T04:52:15.036Z,13.50
2018-02-15T04:54:45.516Z,13.50
2018-02-15T04:57:15.810Z,13.50
2018-02-15T04:59:46.131Z,13.50
2018-02-15T05:02:15.638Z,13.50
2018-02-15T05:04:43.735Z,13.50
2018-02-15T05:07:12.394Z,13.50
2018-02-15T05:09:41.886Z,13.50
2018-02-15T05:12:13.239Z,13.50
2018-02-15T05:14:41.089Z,13.50
2018-02-15T05:17:10.414Z,13.50
2018-02-15T05:19:39.237Z,13.50
2018-02-15T05:22:08.480Z,13.40
2018-02-15T05:24:37.012Z,13.40
2018-02-15T05:27:07.090Z,13.40
2018-02-15T05:29:36.226Z,13.40
2018-02-15T05:32:06.315Z,13.40
2018-02-15T05:34:35.439Z,13.40
2018-02-15T05:37:04.957Z,13.40
2018-02-15T05:39:34.712Z,13.40
2018-02-15T05:42:03.547Z,13.40
2018-02-15T05:44:35.512Z,13.30
2018-02-15T05:47:03.426Z,13.40
2018-02-15T05:49:31.888Z,13.40
2018-02-15T05:52:00.084Z,13.40
2018-02-15T05:54:29.726Z,13.30
2018-02-15T05:56:58.499Z,13.30
2018-02-15T05:59:26.299Z,13.30
2018-02-15T06:01:54.093Z,13.30
2018-02-15T06:04:25.096Z,13.30
2018-02-15T06:06:53.238Z,13.30
2018-02-15T06:09:21.947Z,13.30
2018-02-15T06:11:52.422Z,13.30
2018-02-15T06:14:22.037Z,13.30
2018-02-15T06:16:50.776Z,13.30
2018-02-15T06:19:19.036Z,13.30
2018-02-15T06:21:48.422Z,13.30
2018-02-15T06:24:18.059Z,13.20
2018-02-15T06:26:45.980Z,13.20
2018-02-15T06:29:14.702Z,13.20
2018-02-15T06:31:45.435Z,13.20
2018-02-15T06:34:14.957Z,13.20
2018-02-15T06:36:43.685Z,13.20
2018-02-15T06:39:12.373Z,13.20
2018-02-15T06:41:41.158Z,13.10
2018-02-15T06:44:10.358Z,13.10
2018-02-15T06:46:39.409Z,13.10
2018-02-15T06:49:07.610Z,13.10
2018-02-15T06:51:35.580Z,13.10
2018-02-15T06:54:03.418Z,13.10
2018-02-15T07:56:10.379Z,13.20
2018-02-15T07:58:39.849Z,13.30
2018-02-15T08:01:07.645Z,13.20
2018-02-15T08:03:37.149Z,13.30
2018-02-15T08:06:06.677Z,13.40
2018-02-15T08:08:36.591Z,13.40
2018-02-15T08:11:05.369Z,13.40
2018-02-15T08:13:33.183Z,13.50
2018-02-15T08:16:00.991Z,13.50
2018-02-15T08:18:31.221Z,13.60
2018-02-15T08:20:59.627Z,13.60
2018-02-15T08:23:28.557Z,13.70
2018-02-15T08:25:56.410Z,13.80
2018-02-15T08:28:24.206Z,13.90
2018-02-15T08:30:52.759Z,14.00
2018-02-15T08:33:20.635Z,14.00
2018-02-15T08:35:48.581Z,14.10
2018-02-15T08:38:16.606Z,14.10
2018-02-15T08:40:44.415Z,14.20
2018-02-15T08:43:13.222Z,14.30
2018-02-15T08:45:41.045Z,14.40
2018-02-15T08:48:08.825Z,14.50
2018-02-15T08:50:36.602Z,14.50
2018-02-15T08:53:05.088Z,14.60
2018-02-15T08:55:33.747Z,14.70
2018-02-15T08:58:01.568Z,14.80
2018-02-15T09:00:30.129Z,14.90
2018-02-15T09:02:57.930Z,14.90
2018-02-15T09:05:25.797Z,15.10
2018-02-15T09:07:53.589Z,15.20
2018-02-15T09:10:21.386Z,15.30
2018-02-15T09:12:49.176Z,15.40
2018-02-15T09:15:17.339Z,15.60
2018-02-15T09:17:47.801Z,15.80
2018-02-15T09:20:15.801Z,15.70
2018-02-15T09:22:43.592Z,15.90
2018-02-15T09:25:12.388Z,16.00
2018-02-15T09:27:40.942Z,16.20
2018-02-15T09:30:08.754Z,16.20
2018-02-15T09:32:36.566Z,16.20
2018-02-15T09:35:04.368Z,16.40
2018-02-15T09:37:32.481Z,16.40
2018-02-15T09:40:00.279Z,16.50
2018-02-15T09:42:28.959Z,16.60
2018-02-15T09:44:56.737Z,16.60
2018-02-15T09:47:24.555Z,16.70
2018-02-15T09:49:52.357Z,16.80
2018-02-15T09:52:20.173Z,16.80
2018-02-15T09:54:48.035Z,16.90
2018-02-15T09:57:15.862Z,16.90
2018-02-15T09:59:43.651Z,16.90
2018-02-15T10:02:12.295Z,17.00
2018-02-15T10:04:40.132Z,17.00
2018-02-15T10:07:07.963Z,17.10
2018-02-15T10:09:36.517Z,17.10
2018-02-15T10:12:04.405Z,17.10
2018-02-15T10:14:32.949Z,17.20
2018-02-15T10:17:00.734Z,17.20
2018-02-15T10:19:28.524Z,17.20
2018-02-15T10:21:57.069Z,17.30
2018-02-15T10:24:24.866Z,17.20
2018-02-15T10:26:53.411Z,17.30
2018-02-15T10:29:21.210Z,17.30
2018-02-15T10:31:49.808Z,17.30
2018-02-15T10:34:18.342Z,17.30
2018-02-15T10:36:46.158Z,17.30
2018-02-15T10:39:13.953Z,17.40
2018-02-15T10:41:41.736Z,17.40
2018-02-15T10:44:09.531Z,17.40
2018-02-15T10:46:38.082Z,17.50
2018-02-15T10:49:05.860Z,17.40
2018-02-15T10:51:33.662Z,17.50
2018-02-15T10:54:01.476Z,17.50
2018-02-15T10:56:29.305Z,17.50
2018-02-15T10:58:57.161Z,17.50
2018-02-15T11:01:30.548Z,17.60
2018-02-15T11:04:04.049Z,17.60
2018-02-15T11:06:32.622Z,17.70
2018-02-15T11:09:01.162Z,17.70
2018-02-15T11:11:28.937Z,17.70
2018-02-15T11:13:56.728Z,17.70
2018-02-15T11:16:25.325Z,17.70
2018-02-15T11:18:53.867Z,17.60
2018-02-15T11:21:21.638Z,17.60
2018-02-15T11:23:49.435Z,17.60
2018-02-15T11:26:17.250Z,17.60
2018-02-15T11:28:45.054Z,17.60
2018-02-15T11:31:13.598Z,17.60
2018-02-15T11:33:41.369Z,17.50
2018-02-15T11:36:09.161Z,17.50
2018-02-15T11:38:37.753Z,17.40
2018-02-15T11:41:06.393Z,17.40
2018-02-15T11:43:34.213Z,17.40
2018-02-15T11:46:02.786Z,17.40
2018-02-15T11:48:31.319Z,17.40
2018-02-15T11:50:59.127Z,17.40
2018-02-15T11:53:26.951Z,17.50
2018-02-15T11:55:54.758Z,17.50
2018-02-15T11:58:23.345Z,17.40
2018-02-15T12:00:51.905Z,17.50
2018-02-15T12:03:19.681Z,17.40
2018-02-15T12:05:48.232Z,17.40
2018-02-15T12:08:16.029Z,17.40
2018-02-15T12:10:44.590Z,17.40
2018-02-15T12:13:12.373Z,17.40
2018-02-15T12:15:40.919Z,17.30
2018-02-15T12:18:08.722Z,17.30
2018-02-15T12:20:37.289Z,17.30
2018-02-15T12:23:05.852Z,17.40
2018-02-15T12:25:33.641Z,17.40
2018-02-15T12:28:01.426Z,17.40
2018-02-15T12:30:29.967Z,17.50
2018-02-15T12:32:57.773Z,17.40
2018-02-15T12:35:26.331Z,17.40
2018-02-15T12:37:54.139Z,17.40
2018-02-15T12:40:21.917Z,17.40
2018-02-15T12:42:49.704Z,17.40
2018-02-15T12:45:17.525Z,17.40
2018-02-15T12:47:45.321Z,17.50
2018-02-15T12:50:13.123Z,17.50
2018-02-15T12:52:40.923Z,17.50
2018-02-15T12:55:08.729Z,17.50
2018-02-15T12:57:36.533Z,17.60
2018-02-15T13:00:05.171Z,17.50
2018-02-15T13:02:32.981Z,17.40
2018-02-15T13:05:01.532Z,17.40
2018-02-15T13:07:29.345Z,17.40
2018-02-15T13:09:57.916Z,17.40
2018-02-15T13:12:38.150Z,17.40
2018-02-15T13:15:17.788Z,17.30
2018-02-15T13:17:45.629Z,17.30
2018-02-15T13:20:20.218Z,17.40
2018-02-15T13:22:48.165Z,17.30
2018-02-15T13:25:18.402Z,17.30
2018-02-15T13:27:58.951Z,17.40
2018-02-15T13:30:27.507Z,17.30
2018-02-15T13:32:55.378Z,17.30
2018-02-15T13:35:23.954Z,17.40
2018-02-15T13:37:51.776Z,17.40
2018-02-15T13:40:19.645Z,17.30
2018-02-15T13:42:48.230Z,17.30
2018-02-15T13:45:16.859Z,17.30
2018-02-15T13:47:44.657Z,17.30
2018-02-15T13:50:13.227Z,17.30
2018-02-15T13:52:42.838Z,17.30
2018-02-15T13:55:12.297Z,17.40
2018-02-15T13:57:40.341Z,17.40
2018-02-15T14:00:08.136Z,17.40
2018-02-15T14:02:36.877Z,17.40
2018-02-15T14:05:06.181Z,17.50
2018-02-15T14:07:34.773Z,17.50
2018-02-15T14:10:03.083Z,17.50
2018-02-15T14:12:33.098Z,17.50
2018-02-15T14:15:01.765Z,17.50
2018-02-15T14:17:30.409Z,17.50
2018-02-15T14:20:00.081Z,17.60
2018-02-15T14:22:29.885Z,17.60
2018-02-15T14:24:57.650Z,17.60
2018-02-15T14:27:26.482Z,17.60
2018-02-15T14:29:54.614Z,17.60
2018-02-15T14:32:22.845Z,17.60
2018-02-15T14:34:52.257Z,17.60
2018-02-15T14:37:20.129Z,17.60
2018-02-15T14:39:48.890Z,17.50
2018-02-15T14:42:17.153Z,17.50
2018-02-15T14:44:46.526Z,17.40
2018-02-15T14:47:14.332Z,17.40
2018-02-15T14:49:42.926Z,17.20
2018-02-15T14:52:11.496Z,17.20
2018-02-15T14:55:20.822Z,17.10
2018-02-15T15:01:10.629Z,16.90
2018-02-15T15:09:54.674Z,16.90
2018-02-15T15:32:01.814Z,16.60
2018-02-15T15:34:29.652Z,16.60
2018-02-15T15:36:57.434Z,16.70
2018-02-15T15:39:25.227Z,16.70
2018-02-15T15:41:53.761Z,16.70
2018-02-15T15:44:21.593Z,16.70
2018-02-15T15:46:49.383Z,16.70
2018-02-15T15:49:17.148Z,16.70
2018-02-15T15:51:44.926Z,16.70
2018-02-15T15:54:12.715Z,16.70
2018-02-15T15:56:40.496Z,16.70
2018-02-15T15:59:09.065Z,16.60
2018-02-15T16:01:37.685Z,16.60
2018-02-15T16:04:05.475Z,16.60
2018-02-15T16:06:33.271Z,16.50
2018-02-15T16:09:01.819Z,16.50
2018-02-15T16:11:29.629Z,16.50
2018-02-15T16:13:58.229Z,16.50
2018-02-15T16:16:25.997Z,16.50
2018-02-15T16:18:53.781Z,16.50
2018-02-15T16:21:21.568Z,16.40
2018-02-15T16:23:49.334Z,16.40
2018-02-15T16:26:17.133Z,16.40
2018-02-15T16:28:45.681Z,16.40
2018-02-15T16:31:13.488Z,16.40
2018-02-15T16:33:42.025Z,16.50
2018-02-15T16:36:09.823Z,16.40
2018-02-15T16:38:38.364Z,16.50
2018-02-15T16:41:06.157Z,16.50
2018-02-15T16:43:34.716Z,16.50
2018-02-15T16:46:02.524Z,16.50
2018-02-15T16:48:31.055Z,16.40
2018-02-15T16:50:58.828Z,16.40
2018-02-15T16:53:26.594Z,16.30
2018-02-15T16:55:54.362Z,16.40
2018-02-15T16:58:22.126Z,16.40
2018-02-15T17:00:49.901Z,16.40
2018-02-15T17:03:17.687Z,16.40
2018-02-15T17:05:46.249Z,16.30
2018-02-15T17:08:14.029Z,16.30
2018-02-15T17:10:41.832Z,16.30
2018-02-15T17:13:09.708Z,16.30
2018-02-15T17:15:37.491Z,16.30
2018-02-15T17:18:05.260Z,16.30
2018-02-15T17:20:33.043Z,16.30
2018-02-15T17:23:01.602Z,16.30
2018-02-15T17:25:29.410Z,16.30
2018-02-15T17:27:57.957Z,16.30
2018-02-15T17:30:25.749Z,16.30
2018-02-15T17:32:54.297Z,16.30
2018-02-15T17:35:22.135Z,16.30
2018-02-15T17:37:49.937Z,16.30
2018-02-15T17:40:17.724Z,16.20
2018-02-15T17:42:48.008Z,16.30
2018-02-15T17:45:15.813Z,16.20
2018-02-15T17:47:44.418Z,16.30
2018-02-15T17:50:12.193Z,16.20
2018-02-15T17:52:39.984Z,16.20
2018-02-15T17:55:07.799Z,16.20
2018-02-15T17:57:36.386Z,16.20
2018-02-15T18:00:05.006Z,16.20
2018-02-15T18:02:33.615Z,16.20
2018-02-15T18:05:01.406Z,16.20
2018-02-15T18:07:29.950Z,16.20
2018-02-15T18:09:57.814Z,16.20
2018-02-15T18:12:25.615Z,16.20
2018-02-15T18:14:53.455Z,16.20
2018-02-15T18:17:21.258Z,16.20
2018-02-15T18:19:49.841Z,16.20
2018-02-15T18:22:18.420Z,16.20
2018-02-15T18:24:46.970Z,16.20
2018-02-15T18:27:14.886Z,16.20
2018-02-15T18:29:43.281Z,16.20
2018-02-15T18:32:11.581Z,16.20
2018-02-15T18:34:39.402Z,16.20
2018-02-15T18:37:07.266Z,16.20
2018-02-15T18:39:35.062Z,16.20
2018-02-15T18:42:02.843Z,16.10
2018-02-15T18:44:30.654Z,16.10
2018-02-15T18:46:59.209Z,16.10
2018-02-15T18:49:27.006Z,16.10
2018-02-15T18:51:54.786Z,16.10
2018-02-15T18:54:22.579Z,16.10
2018-02-15T18:56:50.358Z,16.10
2018-02-15T18:59:19.002Z,16.10
2018-02-15T19:01:46.794Z,16.10
2018-02-15T19:04:14.574Z,16.00
2018-02-15T19:06:42.354Z,16.00
2018-02-15T19:09:11.127Z,16.00
2018-02-15T19:11:38.906Z,16.00
2018-02-15T19:14:06.713Z,16.00
2018-02-15T19:16:34.504Z,16.00
2018-02-15T19:19:02.781Z,16.00
2018-02-15T19:21:30.606Z,16.00
2018-02-15T19:24:00.011Z,16.00
2018-02-15T19:26:27.817Z,15.90
2018-02-15T19:28:55.665Z,15.90
2018-02-15T19:31:23.454Z,15.90
2018-02-15T19:33:51.262Z,15.90
2018-02-15T19:36:19.037Z,15.90
2018-02-15T19:38:46.877Z,15.90
2018-02-15T19:41:15.462Z,15.90
2018-02-15T19:43:44.015Z,15.90
2018-02-15T19:46:11.857Z,15.90
2018-02-15T19:48:39.650Z,15.90
2018-02-15T19:51:07.597Z,15.90
2018-02-15T19:53:35.397Z,15.90
2018-02-15T19:56:03.198Z,15.90
2018-02-15T19:58:31.241Z,15.90
2018-02-15T20:01:01.835Z,15.90
2018-02-15T20:03:29.630Z,15.90
2018-02-15T20:05:58.606Z,15.90
2018-02-15T20:08:26.770Z,15.80
2018-02-15T20:10:55.068Z,15.80
2018-02-15T20:13:23.709Z,15.80
2018-02-15T20:15:51.557Z,15.80
2018-02-15T20:18:19.365Z,15.80
2018-02-15T20:20:47.185Z,15.80
2018-02-15T20:23:15.008Z,15.80
2018-02-15T20:25:42.854Z,15.80
2018-02-15T20:28:15.718Z,15.80
2018-02-15T20:30:43.559Z,15.80
2018-02-15T20:33:11.366Z,15.80
2018-02-15T20:35:39.954Z,15.80
2018-02-15T20:38:13.314Z,15.70
2018-02-15T20:40:41.169Z,15.70
2018-02-15T20:43:09.198Z,15.70
2018-02-15T20:45:37.048Z,15.70
2018-02-15T20:48:05.952Z,15.70
2018-02-15T20:50:39.562Z,15.70
2018-02-15T20:53:13.684Z,15.60
2018-02-15T20:55:46.796Z,15.60
2018-02-15T20:58:14.881Z,15.60
2018-02-15T21:00:43.744Z,15.60
2018-02-15T21:03:13.624Z,15.60
2018-02-15T21:05:41.586Z,15.50
2018-02-15T21:08:09.531Z,15.50
2018-02-15T21:10:37.376Z,15.60
2018-02-15T21:13:07.346Z,15.60
2018-02-15T21:15:35.194Z,15.60
2018-02-15T21:18:03.870Z,15.60
2018-02-15T21:20:32.367Z,15.50
2018-02-15T21:23:00.231Z,15.50
2018-02-15T21:25:28.224Z,15.50
2018-02-15T21:27:56.031Z,15.50
2018-02-15T21:30:23.862Z,15.50
2018-02-15T21:32:52.465Z,15.50
2018-02-15T21:35:20.381Z,15.50
2018-02-15T21:37:48.770Z,15.40
2018-02-15T21:40:17.141Z,15.40
2018-02-15T21:42:44.975Z,15.40
2018-02-15T21:45:12.753Z,15.40
2018-02-15T21:47:42.078Z,15.40
2018-02-15T21:50:09.870Z,15.40
2018-02-15T21:52:39.348Z,15.40
2018-02-15T21:55:08.158Z,15.30
2018-02-15T21:57:36.788Z,15.30
2018-02-15T22:00:04.822Z,15.30
2018-02-15T22:02:32.625Z,15.30
2018-02-15T22:05:00.406Z,15.30
2018-02-15T22:07:28.196Z,15.20
2018-02-15T22:09:56.023Z,15.30
2018-02-15T22:12:24.245Z,15.20
2018-02-15T22:14:53.022Z,15.20
2018-02-15T22:17:22.138Z,15.20
2018-02-15T22:19:51.508Z,15.20
2018-02-15T22:22:19.298Z,15.20
2018-02-15T22:24:49.563Z,15.20
2018-02-15T22:27:17.339Z,15.20
2018-02-15T22:29:45.190Z,15.20
2018-02-15T22:32:14.341Z,15.20
2018-02-15T22:34:42.889Z,15.20
2018-02-15T22:37:12.537Z,15.20
2018-02-15T22:39:41.094Z,15.10
2018-02-15T22:42:09.826Z,15.10
2018-02-15T22:44:37.627Z,15.20
2018-02-15T22:47:05.438Z,15.20
2018-02-15T22:49:33.981Z,15.10
2018-02-15T22:52:01.826Z,15.10
2018-02-15T22:54:29.642Z,15.10
2018-02-15T22:56:58.187Z,15.00
2018-02-15T22:59:25.961Z,15.00
2018-02-15T23:01:53.794Z,15.00
2018-02-15T23:04:21.579Z,15.00
2018-02-15T23:06:49.366Z,15.00
2018-02-15T23:09:17.438Z,15.00
2018-02-15T23:11:45.854Z,15.00
2018-02-15T23:14:15.506Z,15.00
2018-02-15T23:16:43.857Z,15.00
2018-02-15T23:19:11.629Z,15.00
2018-02-15T23:21:39.490Z,14.90
2018-02-15T23:24:08.162Z,14.90
2018-02-15T23:26:35.953Z,14.90
2018-02-15T23:29:03.753Z,14.90
2018-02-15T23:31:31.644Z,14.90
2018-02-15T23:33:59.506Z,14.90
2018-02-15T23:36:27.519Z,14.90
2018-02-15T23:38:57.118Z,14.80
2018-02-15T23:41:25.227Z,14.90
2018-02-15T23:43:53.022Z,14.80
2018-02-15T23:46:23.171Z,14.80
2018-02-15T23:48:50.946Z,14.80
2018-02-15T23:51:20.125Z,14.80
2018-02-15T23:53:48.046Z,14.80
2018-02-15T23:56:15.984Z,14.80
2018-02-15T23:58:44.442Z,14.70
